createdAt,value
2019-05-11T00:00:25.130Z,99.90
2019-05-11T00:03:04.527Z,99.90
2019-05-11T00:05:36.096Z,99.90
2019-05-11T00:08:05.995Z,99.90
2019-05-11T00:10:40.839Z,99.90
2019-05-11T00:13:15.544Z,99.90
2019-05-11T00:15:50.169Z,99.90
2019-05-11T00:18:22.051Z,99.90
2019-05-11T00:20:53.706Z,99.90
2019-05-11T00:23:28.615Z,99.90
2019-05-11T00:26:40.045Z,99.90
2019-05-11T00:29:10.864Z,99.90
2019-05-11T00:31:43.132Z,99.90
2019-05-11T00:34:17.859Z,99.90
2019-05-11T00:36:49.718Z,99.90
2019-05-11T00:39:20.455Z,99.90
2019-05-11T00:41:49.551Z,99.90
2019-05-11T00:44:18.339Z,99.90
2019-05-11T00:46:47.227Z,99.90
2019-05-11T00:49:19.189Z,99.90
2019-05-11T00:51:50.026Z,99.90
2019-05-11T00:54:24.853Z,99.90
2019-05-11T00:56:56.519Z,99.90
2019-05-11T00:59:26.325Z,99.90
2019-05-11T01:02:01.129Z,99.90
2019-05-11T01:04:33.214Z,99.90
2019-05-11T01:07:07.868Z,99.90
2019-05-11T01:09:36.710Z,99.90
2019-05-11T01:12:05.485Z,99.90
2019-05-11T01:14:37.046Z,99.90
2019-05-11T01:17:08.885Z,99.90
2019-05-11T01:19:38.724Z,99.90
2019-05-11T01:22:10.271Z,99.90
2019-05-11T01:24:44.923Z,99.90
2019-05-11T01:27:19.648Z,99.90
2019-05-11T01:29:54.377Z,99.90
2019-05-11T01:32:26.545Z,99.90
2019-05-11T01:34:57.984Z,99.90
2019-05-11T01:37:32.696Z,99.90
2019-05-11T01:40:01.614Z,99.90
2019-05-11T01:42:30.376Z,99.90
2019-05-11T01:44:59.391Z,99.90
2019-05-11T01:47:34.195Z,99.90
2019-05-11T01:50:09.130Z,99.90
2019-05-11T01:52:40.705Z,99.90
2019-05-11T01:55:12.359Z,99.90
2019-05-11T01:57:43.912Z,99.90
2019-05-11T02:00:18.685Z,99.90
2019-05-11T02:02:50.091Z,99.90
2019-05-11T02:05:28.520Z,99.90
2019-05-11T02:08:03.334Z,99.90
2019-05-11T02:10:38.064Z,99.90
2019-05-11T02:13:12.665Z,99.90
2019-05-11T02:15:44.648Z,99.90
2019-05-11T02:18:16.199Z,99.90
2019-05-11T02:20:47.753Z,99.90
2019-05-11T02:23:29.962Z,99.90
2019-05-11T02:26:01.509Z,99.90
2019-05-11T02:28:30.259Z,99.90
2019-05-11T02:30:59.059Z,99.90
2019-05-11T02:33:27.932Z,99.90
2019-05-11T02:35:56.869Z,99.90
2019-05-11T02:38:25.760Z,99.90
2019-05-11T02:40:54.756Z,99.90
2019-05-11T02:43:29.461Z,99.90
2019-05-11T02:46:04.109Z,99.90
2019-05-11T02:48:38.709Z,99.90
2019-05-11T02:51:11.472Z,99.90
2019-05-11T02:53:43.068Z,99.90
2019-05-11T02:56:13.896Z,99.90
2019-05-11T02:58:48.501Z,99.90
2019-05-11T03:01:23.455Z,99.90
2019-05-11T03:03:53.257Z,99.90
2019-05-11T03:06:24.719Z,99.90
2019-05-11T03:08:59.345Z,99.90
2019-05-11T03:11:33.966Z,99.90
2019-05-11T03:14:02.740Z,99.90
2019-05-11T03:16:32.540Z,99.90
2019-05-11T03:19:01.560Z,99.90
2019-05-11T03:21:30.430Z,99.90
2019-05-11T03:24:14.064Z,99.90
2019-05-11T03:26:48.917Z,99.90
2019-05-11T03:29:20.857Z,99.90
2019-05-11T03:31:55.429Z,99.90
2019-05-11T03:34:29.056Z,99.90
2019-05-11T03:36:57.955Z,99.90
2019-05-11T03:39:29.856Z,99.90
2019-05-11T03:42:16.865Z,99.90
2019-05-11T03:44:48.425Z,99.90
2019-05-11T03:47:20.485Z,99.90
2019-05-11T03:49:55.313Z,99.90
2019-05-11T03:52:26.739Z,99.90
2019-05-11T03:55:01.474Z,99.90
2019-05-11T03:57:32.940Z,99.90
2019-05-11T04:00:01.711Z,99.90
2019-05-11T04:02:36.472Z,99.90
2019-05-11T04:05:08.350Z,99.90
2019-05-11T04:07:39.140Z,99.90
2019-05-11T04:10:09.480Z,99.90
2019-05-11T04:12:49.643Z,99.90
2019-05-11T04:15:20.437Z,99.90
2019-05-11T04:17:49.348Z,99.90
2019-05-11T04:20:24.089Z,99.90
2019-05-11T04:22:58.698Z,99.90
2019-05-11T04:25:30.151Z,99.90
2019-05-11T04:27:58.929Z,99.90
2019-05-11T04:30:27.847Z,99.90
2019-05-11T04:32:56.713Z,99.90
2019-05-11T04:35:25.622Z,99.90
2019-05-11T04:37:54.451Z,99.90
2019-05-11T04:40:26.372Z,99.90
2019-05-11T04:42:56.310Z,99.90
2019-05-11T04:45:27.454Z,99.90
2019-05-11T04:47:56.297Z,99.90
2019-05-11T04:50:27.752Z,99.90
2019-05-11T04:52:59.739Z,99.90
2019-05-11T04:55:29.747Z,99.90
2019-05-11T04:57:59.763Z,99.90
2019-05-11T05:00:31.832Z,99.90
2019-05-11T05:03:01.616Z,99.90
2019-05-11T05:05:36.373Z,99.90
2019-05-11T05:08:09.539Z,99.90
2019-05-11T05:10:37.738Z,99.90
2019-05-11T05:13:12.561Z,99.90
2019-05-11T05:15:43.996Z,99.90
2019-05-11T05:18:18.944Z,99.90
2019-05-11T05:20:47.688Z,99.90
2019-05-11T05:23:22.466Z,99.90
2019-05-11T05:25:57.095Z,99.90
2019-05-11T05:28:26.896Z,99.90
2019-05-11T05:30:55.664Z,99.90
2019-05-11T05:33:24.688Z,99.90
2019-05-11T05:35:57.568Z,99.90
2019-05-11T05:38:29.010Z,99.90
2019-05-11T05:41:03.511Z,99.90
2019-05-11T05:43:35.065Z,99.90
2019-05-11T05:46:07.128Z,99.90
2019-05-11T05:48:41.981Z,99.90
2019-05-11T05:51:16.529Z,99.90
2019-05-11T05:54:04.963Z,99.90
2019-05-11T05:56:39.483Z,99.90
2019-05-11T05:59:10.519Z,99.90
2019-05-11T06:01:39.513Z,99.90
2019-05-11T06:04:10.962Z,99.90
2019-05-11T06:06:45.688Z,99.90
2019-05-11T06:09:20.316Z,99.90
2019-05-11T06:11:49.069Z,99.90
2019-05-11T06:14:18.000Z,99.90
2019-05-11T06:16:46.863Z,99.90
2019-05-11T06:19:21.507Z,99.90
2019-05-11T06:21:56.108Z,99.90
2019-05-11T06:24:31.884Z,99.90
2019-05-11T06:27:01.780Z,99.90
2019-05-11T06:29:30.685Z,99.90
2019-05-11T06:32:02.238Z,99.90
2019-05-11T06:34:34.512Z,99.90
2019-05-11T06:37:05.493Z,99.90
2019-05-11T06:39:40.381Z,99.90
2019-05-11T06:42:11.318Z,99.90
2019-05-11T06:44:43.279Z,99.90
2019-05-11T06:47:13.172Z,99.90
2019-05-11T06:49:44.746Z,99.90
2019-05-11T06:52:19.473Z,99.90
2019-05-11T06:54:48.236Z,99.90
2019-05-11T06:57:22.764Z,99.90
2019-05-11T06:59:57.517Z,99.90
2019-05-11T07:02:26.328Z,99.90
2019-05-11T07:04:56.171Z,99.90
2019-05-11T07:07:28.288Z,99.90
2019-05-11T07:09:57.170Z,99.90
2019-05-11T07:12:28.725Z,99.90
2019-05-11T07:14:57.487Z,99.90
2019-05-11T07:17:32.442Z,99.70
2019-05-11T07:20:07.831Z,99.80
2019-05-11T07:22:38.726Z,99.60
2019-05-11T07:25:09.666Z,99.60
2019-05-11T07:27:41.606Z,99.30
2019-05-11T07:30:13.495Z,99.20
2019-05-11T07:32:45.288Z,98.90
2019-05-11T07:35:14.648Z,98.70
2019-05-11T07:37:47.722Z,98.20
2019-05-11T07:40:18.568Z,97.80
2019-05-11T07:42:48.791Z,97.30
2019-05-11T07:45:19.755Z,97.00
2019-05-11T07:47:48.772Z,96.80
2019-05-11T07:50:28.168Z,96.90
2019-05-11T07:52:58.895Z,96.20
2019-05-11T07:55:28.713Z,96.30
2019-05-11T07:58:03.402Z,95.80
2019-05-11T08:00:35.953Z,95.00
2019-05-11T08:03:03.878Z,94.90
2019-05-11T08:05:38.753Z,94.50
2019-05-11T08:08:13.514Z,94.20
2019-05-11T08:10:44.989Z,94.00
2019-05-11T08:13:13.876Z,94.00
2019-05-11T08:15:48.982Z,93.90
2019-05-11T08:18:20.056Z,93.30
2019-05-11T08:20:54.868Z,92.90
2019-05-11T08:23:30.533Z,92.40
2019-05-11T08:26:05.153Z,92.00
2019-05-11T08:28:39.885Z,92.10
2019-05-11T08:31:09.697Z,92.00
2019-05-11T08:33:38.975Z,92.10
2019-05-11T08:36:11.551Z,91.40
2019-05-11T08:38:43.452Z,90.70
2019-05-11T08:41:14.209Z,90.50
2019-05-11T08:43:43.140Z,90.10
2019-05-11T08:46:18.704Z,89.70
2019-05-11T08:48:53.537Z,88.60
2019-05-11T08:51:22.534Z,89.30
2019-05-11T08:53:52.454Z,90.20
2019-05-11T08:56:21.235Z,90.00
2019-05-11T08:58:55.189Z,90.20
2019-05-11T09:01:28.705Z,90.50
2019-05-11T09:03:59.681Z,90.20
2019-05-11T09:06:29.391Z,90.00
2019-05-11T09:09:01.352Z,90.60
2019-05-11T09:11:31.166Z,90.80
2019-05-11T09:13:59.932Z,90.40
2019-05-11T09:16:30.997Z,90.70
2019-05-11T09:19:02.430Z,90.60
2019-05-11T09:21:38.346Z,91.00
2019-05-11T09:24:08.506Z,90.70
2019-05-11T09:26:38.869Z,90.80
2019-05-11T09:29:08.655Z,90.60
2019-05-11T09:31:38.983Z,91.10
2019-05-11T09:34:09.127Z,91.60
2019-05-11T09:36:39.521Z,91.50
2019-05-11T09:39:11.617Z,91.40
2019-05-11T09:41:48.656Z,91.40
2019-05-11T09:44:18.296Z,90.70
2019-05-11T09:46:47.909Z,90.30
2019-05-11T09:49:43.855Z,90.20
2019-05-11T09:52:07.713Z,90.20
2019-05-11T09:54:39.041Z,90.20
2019-05-11T09:57:38.164Z,89.80
2019-05-11T10:00:09.789Z,89.80
2019-05-11T10:02:43.285Z,88.70
2019-05-11T10:05:18.876Z,88.40
2019-05-11T10:07:48.487Z,88.20
2019-05-11T10:10:23.556Z,89.30
2019-05-11T10:12:53.020Z,88.00
2019-05-11T10:15:22.077Z,87.60
2019-05-11T10:17:58.845Z,86.00
2019-05-11T10:20:28.683Z,86.80
2019-05-11T10:22:58.047Z,85.00
2019-05-11T10:25:28.804Z,84.90
2019-05-11T10:27:58.096Z,84.80
2019-05-11T10:30:28.060Z,86.00
2019-05-11T10:33:00.183Z,85.70
2019-05-11T10:35:32.324Z,86.00
2019-05-11T10:38:04.291Z,86.60
2019-05-11T10:40:35.763Z,85.20
2019-05-11T10:43:04.655Z,86.10
2019-05-11T10:45:39.353Z,85.00
2019-05-11T10:48:10.829Z,84.70
2019-05-11T10:50:42.777Z,84.40
2019-05-11T10:53:18.513Z,85.30
2019-05-11T10:55:48.005Z,84.00
2019-05-11T10:58:18.390Z,84.40
2019-05-11T11:01:22.986Z,84.00
2019-05-11T11:03:58.667Z,83.80
2019-05-11T11:06:28.287Z,84.00
2019-05-11T11:09:00.299Z,83.10
2019-05-11T11:11:35.052Z,84.00
2019-05-11T11:14:08.523Z,83.50
2019-05-11T11:16:42.841Z,82.50
2019-05-11T11:19:13.012Z,83.60
2019-05-11T11:21:50.897Z,83.60
2019-05-11T11:24:22.335Z,84.40
2019-05-11T11:26:51.219Z,83.40
2019-05-11T11:29:21.147Z,82.50
2019-05-11T11:31:51.065Z,82.40
2019-05-11T11:34:21.998Z,82.40
2019-05-11T11:36:52.071Z,82.50
2019-05-11T11:39:21.009Z,82.10
2019-05-11T11:41:50.821Z,81.90
2019-05-11T11:44:26.063Z,81.00
2019-05-11T11:46:58.775Z,81.00
2019-05-11T11:49:28.250Z,83.00
2019-05-11T11:52:03.178Z,82.90
2019-05-11T11:54:33.091Z,81.60
2019-05-11T11:57:03.924Z,81.90
2019-05-11T11:59:32.779Z,83.00
2019-05-11T12:02:01.808Z,83.00
2019-05-11T12:04:38.704Z,83.10
2019-05-11T12:07:12.567Z,82.40
2019-05-11T12:09:44.555Z,83.70
2019-05-11T12:12:19.281Z,83.30
2019-05-11T12:14:54.213Z,82.30
2019-05-11T12:17:28.843Z,82.20
2019-05-11T12:20:00.801Z,82.10
2019-05-11T12:22:32.228Z,82.10
2019-05-11T12:25:07.985Z,81.70
2019-05-11T12:27:38.940Z,80.70
2019-05-11T12:30:13.871Z,81.20
2019-05-11T12:32:48.731Z,81.70
2019-05-11T12:35:20.636Z,79.50
2019-05-11T12:37:52.635Z,80.40
2019-05-11T12:40:31.364Z,79.00
2019-05-11T12:43:00.216Z,79.10
2019-05-11T12:45:31.688Z,80.30
2019-05-11T12:48:01.706Z,79.70
2019-05-11T12:50:32.029Z,79.80
2019-05-11T12:53:02.804Z,79.60
2019-05-11T12:55:32.780Z,79.70
2019-05-11T12:58:08.571Z,81.10
2019-05-11T13:00:39.216Z,80.70
2019-05-11T13:03:11.235Z,80.90
2019-05-11T13:05:39.988Z,82.10
2019-05-11T13:08:14.742Z,81.40
2019-05-11T13:10:47.897Z,82.00
2019-05-11T13:13:18.168Z,81.00
2019-05-11T13:15:47.960Z,80.50
2019-05-11T13:18:18.621Z,80.10
2019-05-11T13:20:48.206Z,79.90
2019-05-11T13:23:23.242Z,80.60
2019-05-11T13:25:58.504Z,79.40
2019-05-11T13:28:48.671Z,80.00
2019-05-11T13:31:23.501Z,79.30
2019-05-11T13:33:52.369Z,79.30
2019-05-11T13:36:24.560Z,78.50
2019-05-11T13:38:53.449Z,79.50
2019-05-11T13:41:22.320Z,80.70
2019-05-11T13:43:52.310Z,79.70
2019-05-11T13:46:24.189Z,78.70
2019-05-11T13:48:58.919Z,78.00
2019-05-11T13:51:28.540Z,78.30
2019-05-11T13:53:59.595Z,78.30
2019-05-11T13:56:32.318Z,78.10
2019-05-11T13:59:10.639Z,78.20
2019-05-11T14:01:39.691Z,78.80
2019-05-11T14:04:08.673Z,79.10
2019-05-11T14:06:37.928Z,78.90
2019-05-11T14:09:08.813Z,79.50
2019-05-11T14:11:40.257Z,78.60
2019-05-11T14:14:12.201Z,78.90
2019-05-11T14:16:44.580Z,78.60
2019-05-11T14:19:17.967Z,78.30
2019-05-11T14:21:48.799Z,77.60
2019-05-11T14:24:19.640Z,77.70
2019-05-11T14:26:51.296Z,77.40
2019-05-11T14:29:28.111Z,77.60
2019-05-11T14:31:59.136Z,78.50
2019-05-11T14:34:28.741Z,78.80
2019-05-11T14:37:03.547Z,78.80
2019-05-11T14:39:32.566Z,78.80
2019-05-11T14:42:03.993Z,80.00
2019-05-11T14:44:37.636Z,80.30
2019-05-11T14:47:08.640Z,82.00
2019-05-11T14:49:43.279Z,81.00
2019-05-11T14:52:18.817Z,81.70
2019-05-11T14:54:53.632Z,80.20
2019-05-11T14:57:28.279Z,79.20
2019-05-11T14:59:59.831Z,79.30
2019-05-11T15:02:49.280Z,80.40
2019-05-11T15:05:18.507Z,80.20
2019-05-11T15:07:53.332Z,79.40
2019-05-11T15:10:24.890Z,79.60
2019-05-11T15:12:56.266Z,79.50
2019-05-11T15:15:25.099Z,80.40
2019-05-11T15:18:00.028Z,81.40
2019-05-11T15:20:31.506Z,81.10
2019-05-11T15:23:02.342Z,81.30
2019-05-11T15:25:38.206Z,82.20
2019-05-11T15:28:08.843Z,82.70
2019-05-11T15:30:39.050Z,82.50
2019-05-11T15:33:07.959Z,83.90
2019-05-11T15:35:37.931Z,85.00
2019-05-11T15:38:08.799Z,83.20
2019-05-11T15:40:41.062Z,82.30
2019-05-11T15:43:17.793Z,82.60
2019-05-11T15:45:49.468Z,82.80
2019-05-11T15:48:24.219Z,83.20
2019-05-11T15:50:57.698Z,84.70
2019-05-11T15:53:26.300Z,85.80
2019-05-11T15:55:59.596Z,84.70
2019-05-11T15:58:29.792Z,84.90
2019-05-11T16:01:04.442Z,83.70
2019-05-11T16:03:35.993Z,84.00
2019-05-11T16:06:08.026Z,84.10
2019-05-11T16:08:37.631Z,85.20
2019-05-11T16:11:12.495Z,83.90
2019-05-11T16:13:41.359Z,85.10
2019-05-11T16:16:34.442Z,84.90
2019-05-11T16:19:13.640Z,85.80
2019-05-11T16:21:42.366Z,86.00
2019-05-11T16:24:11.252Z,86.60
2019-05-11T16:26:47.523Z,85.30
2019-05-11T16:29:19.153Z,84.50
2019-05-11T16:31:50.809Z,84.60
2019-05-11T16:34:19.715Z,84.30
2019-05-11T16:36:54.647Z,85.60
2019-05-11T16:39:28.015Z,86.10
2019-05-11T16:41:58.163Z,85.10
2019-05-11T16:44:32.995Z,85.40
2019-05-11T16:47:04.446Z,85.70
2019-05-11T16:49:33.439Z,86.00
2019-05-11T16:52:10.139Z,86.90
2019-05-11T16:54:41.360Z,86.80
2019-05-11T16:57:13.527Z,85.40
2019-05-11T16:59:48.464Z,85.00
2019-05-11T17:02:20.116Z,85.60
2019-05-11T17:04:49.112Z,87.00
2019-05-11T17:07:23.937Z,86.90
2019-05-11T17:09:52.821Z,87.50
2019-05-11T17:12:21.820Z,87.90
2019-05-11T17:15:00.029Z,87.70
2019-05-11T17:17:34.769Z,87.80
2019-05-11T17:20:03.955Z,87.60
2019-05-11T17:22:34.772Z,88.90
2019-05-11T17:25:04.495Z,88.40
2019-05-11T17:27:33.386Z,86.70
2019-05-11T17:30:02.287Z,88.00
2019-05-11T17:32:38.355Z,88.30
2019-05-11T17:35:08.470Z,88.00
2019-05-11T17:37:39.497Z,89.30
2019-05-11T17:40:10.519Z,88.10
2019-05-11T17:42:40.555Z,88.30
2019-05-11T17:45:09.651Z,88.60
2019-05-11T17:47:38.855Z,90.30
2019-05-11T17:50:10.809Z,90.90
2019-05-11T17:52:39.832Z,90.50
2019-05-11T17:55:14.634Z,90.60
2019-05-11T17:57:48.898Z,90.20
2019-05-11T18:00:22.649Z,90.10
2019-05-11T18:02:52.672Z,89.50
2019-05-11T18:05:24.842Z,90.40
2019-05-11T18:08:00.384Z,90.50
2019-05-11T18:10:29.270Z,90.50
2019-05-11T18:13:03.980Z,90.50
2019-05-11T18:15:34.418Z,90.10
2019-05-11T18:18:09.626Z,90.10
2019-05-11T18:20:38.542Z,90.50
2019-05-11T18:23:13.082Z,90.90
2019-05-11T18:25:41.867Z,90.90
2019-05-11T18:28:14.330Z,90.60
2019-05-11T18:30:44.371Z,91.10
2019-05-11T18:33:15.780Z,91.30
2019-05-11T18:35:44.619Z,91.10
2019-05-11T18:38:13.435Z,91.10
2019-05-11T18:40:42.271Z,90.90
2019-05-11T18:43:14.166Z,91.30
2019-05-11T18:45:42.966Z,90.90
2019-05-11T18:48:11.750Z,91.40
2019-05-11T18:50:40.609Z,91.00
2019-05-11T18:53:09.697Z,91.60
2019-05-11T18:55:40.633Z,92.30
2019-05-11T18:58:18.173Z,91.80
2019-05-11T19:00:45.992Z,91.50
2019-05-11T19:03:15.806Z,91.70
2019-05-11T19:05:50.634Z,92.20
2019-05-11T19:08:20.552Z,92.10
2019-05-11T19:10:52.512Z,92.20
2019-05-11T19:13:21.608Z,91.90
2019-05-11T19:15:50.603Z,92.60
2019-05-11T19:18:25.329Z,92.10
2019-05-11T19:20:58.629Z,92.00
2019-05-11T19:23:28.743Z,92.50
2019-05-11T19:26:03.775Z,92.20
2019-05-11T19:28:35.225Z,92.30
2019-05-11T19:31:12.503Z,92.30
2019-05-11T19:33:48.930Z,92.50
2019-05-11T19:36:23.451Z,92.60
2019-05-11T19:38:52.393Z,92.30
2019-05-11T19:41:23.811Z,92.30
2019-05-11T19:43:57.697Z,92.40
2019-05-11T19:46:29.154Z,92.10
2019-05-11T19:49:04.163Z,92.80
2019-05-11T19:51:32.971Z,92.70
2019-05-11T19:54:01.804Z,93.40
2019-05-11T19:56:38.334Z,93.20
2019-05-11T19:59:08.567Z,93.00
2019-05-11T20:01:43.659Z,92.90
2019-05-11T20:04:14.502Z,93.10
2019-05-11T20:06:43.311Z,93.00
2019-05-11T20:09:12.155Z,92.90
2019-05-11T20:11:47.614Z,93.30
2019-05-11T20:14:19.805Z,92.90
2019-05-11T20:16:48.621Z,92.60
2019-05-11T20:19:18.733Z,92.30
2019-05-11T20:21:48.541Z,92.90
2019-05-11T20:24:25.112Z,93.20
2019-05-11T20:26:53.659Z,92.90
2019-05-11T20:29:22.485Z,92.50
2019-05-11T20:31:51.254Z,92.50
2019-05-11T20:34:20.106Z,92.70
2019-05-11T20:36:54.611Z,92.70
2019-05-11T20:39:28.656Z,92.80
2019-05-11T20:42:03.239Z,92.60
2019-05-11T20:44:32.283Z,93.00
2019-05-11T20:47:01.148Z,93.10
2019-05-11T20:49:32.807Z,93.20
2019-05-11T20:52:19.306Z,92.80
2019-05-11T20:54:51.680Z,93.10
2019-05-11T20:57:28.349Z,92.90
2019-05-11T21:00:02.667Z,92.10
2019-05-11T21:02:38.018Z,93.00
2019-05-11T21:05:10.486Z,92.60
2019-05-11T21:07:42.655Z,92.40
2019-05-11T21:10:11.746Z,92.70
2019-05-11T21:12:40.637Z,93.00
2019-05-11T21:15:10.842Z,92.90
2019-05-11T21:17:42.413Z,92.60
2019-05-11T21:20:11.808Z,92.40
2019-05-11T21:22:43.478Z,92.80
2019-05-11T21:25:18.314Z,92.90
2019-05-11T21:27:50.161Z,93.30
2019-05-11T21:30:22.123Z,93.10
2019-05-11T21:32:53.982Z,93.60
2019-05-11T21:35:23.997Z,93.10
2019-05-11T21:37:52.991Z,92.60
2019-05-11T21:40:25.567Z,92.50
2019-05-11T21:43:00.146Z,92.70
2019-05-11T21:45:28.970Z,93.30
2019-05-11T21:48:00.386Z,93.10
2019-05-11T21:50:29.194Z,93.10
2019-05-11T21:52:58.999Z,93.40
2019-05-11T21:55:33.963Z,93.40
2019-05-11T21:58:09.131Z,92.90
2019-05-11T22:00:38.817Z,93.20
2019-05-11T22:03:10.184Z,93.50
2019-05-11T22:05:44.475Z,92.80
2019-05-11T22:08:19.100Z,93.50
2019-05-11T22:10:50.654Z,93.40
2019-05-11T22:13:25.385Z,93.80
2019-05-11T22:15:58.139Z,93.50
2019-05-11T22:18:33.196Z,92.90
2019-05-11T22:21:08.627Z,93.10
2019-05-11T22:23:40.295Z,93.10
2019-05-11T22:26:09.288Z,92.90
2019-05-11T22:28:41.218Z,93.10
2019-05-11T22:31:12.654Z,93.10
2019-05-11T22:33:41.447Z,93.30
2019-05-11T22:36:16.319Z,93.50
2019-05-11T22:38:51.154Z,93.40
2019-05-11T22:41:23.462Z,93.20
2019-05-11T22:43:58.042Z,93.30
2019-05-11T22:46:28.187Z,93.00
2019-05-11T22:49:00.330Z,92.70
2019-05-11T22:51:30.248Z,92.70
2019-05-11T22:54:04.868Z,92.90
2019-05-11T22:56:33.659Z,93.10
2019-05-11T22:59:02.651Z,93.20
2019-05-11T23:01:37.940Z,93.60
2019-05-11T23:04:08.010Z,93.90
2019-05-11T23:06:40.267Z,93.90
2019-05-11T23:09:30.674Z,93.00
2019-05-11T23:12:02.124Z,93.90
2019-05-11T23:14:39.513Z,94.30
2019-05-11T23:17:11.070Z,94.00
2019-05-11T23:19:42.478Z,93.20
2019-05-11T23:22:11.386Z,93.40
2019-05-11T23:24:47.985Z,93.80
2019-05-11T23:27:18.102Z,93.60
2019-05-11T23:29:52.931Z,93.50
2019-05-11T23:32:27.759Z,93.70
2019-05-11T23:34:59.302Z,93.90
2019-05-11T23:37:29.330Z,93.70
2019-05-11T23:40:01.393Z,93.60
2019-05-11T23:42:33.459Z,93.30
2019-05-11T23:45:04.094Z,93.20
2019-05-11T23:47:36.154Z,93.50
2019-05-11T23:50:08.275Z,93.30
2019-05-11T23:52:38.102Z,92.80
2019-05-11T23:55:13.176Z,93.10
2019-05-11T23:57:42.977Z,93.30
